sensor_id;sensor_type;location;lat;lon;timestamp;P1;durP1;ratioP1;P2;durP2;ratioP2
75135;SDS011;63707;52.212;9.540;2023-01-13T00:03:21;1.52;;;1.08;;
75135;SDS011;63707;52.212;9.540;2023-01-13T00:06:45;0.80;;;0.77;;
75135;SDS011;63707;52.212;9.540;2023-01-13T00:10:10;1.00;;;0.80;;
75135;SDS011;63707;52.212;9.540;2023-01-13T00:13:36;1.77;;;1.00;;
75135;SDS011;63707;52.212;9.540;2023-01-13T00:17:00;0.95;;;0.80;;
75135;SDS011;63707;52.212;9.540;2023-01-13T00:20:24;0.75;;;0.60;;
75135;SDS011;63707;52.212;9.540;2023-01-13T00:23:49;0.80;;;0.60;;
75135;SDS011;63707;52.212;9.540;2023-01-13T00:27:13;1.00;;;0.50;;
75135;SDS011;63707;52.212;9.540;2023-01-13T00:30:38;0.82;;;0.77;;
75135;SDS011;63707;52.212;9.540;2023-01-13T00:34:02;1.10;;;0.52;;
75135;SDS011;63707;52.212;9.540;2023-01-13T00:37:27;1.08;;;0.88;;
75135;SDS011;63707;52.212;9.540;2023-01-13T00:40:55;1.17;;;0.90;;
75135;SDS011;63707;52.212;9.540;2023-01-13T00:44:38;1.40;;;0.73;;
75135;SDS011;63707;52.212;9.540;2023-01-13T00:48:03;0.98;;;0.80;;
75135;SDS011;63707;52.212;9.540;2023-01-13T00:51:27;1.92;;;0.70;;
75135;SDS011;63707;52.212;9.540;2023-01-13T00:54:51;0.60;;;0.60;;
75135;SDS011;63707;52.212;9.540;2023-01-13T00:58:22;0.93;;;0.73;;
75135;SDS011;63707;52.212;9.540;2023-01-13T01:01:46;0.88;;;0.70;;
75135;SDS011;63707;52.212;9.540;2023-01-13T01:05:11;1.05;;;0.93;;
75135;SDS011;63707;52.212;9.540;2023-01-13T01:08:36;0.88;;;0.80;;
75135;SDS011;63707;52.212;9.540;2023-01-13T01:12:03;1.63;;;1.00;;
75135;SDS011;63707;52.212;9.540;2023-01-13T01:15:27;0.90;;;0.75;;
75135;SDS011;63707;52.212;9.540;2023-01-13T01:18:52;0.60;;;0.60;;
75135;SDS011;63707;52.212;9.540;2023-01-13T01:22:18;0.70;;;0.68;;
75135;SDS011;63707;52.212;9.540;2023-01-13T01:25:42;1.27;;;0.95;;
75135;SDS011;63707;52.212;9.540;2023-01-13T01:29:06;1.40;;;0.60;;
75135;SDS011;63707;52.212;9.540;2023-01-13T01:32:32;1.88;;;0.52;;
75135;SDS011;63707;52.212;9.540;2023-01-13T01:35:56;0.53;;;0.50;;
75135;SDS011;63707;52.212;9.540;2023-01-13T01:39:21;0.80;;;0.40;;
75135;SDS011;63707;52.212;9.540;2023-01-13T01:42:45;0.68;;;0.55;;
75135;SDS011;63707;52.212;9.540;2023-01-13T01:46:24;1.40;;;0.60;;
75135;SDS011;63707;52.212;9.540;2023-01-13T01:49:48;0.70;;;0.40;;
75135;SDS011;63707;52.212;9.540;2023-01-13T01:53:13;0.63;;;0.40;;
75135;SDS011;63707;52.212;9.540;2023-01-13T01:56:44;3.92;;;0.90;;
75135;SDS011;63707;52.212;9.540;2023-01-13T02:00:12;1.92;;;0.47;;
75135;SDS011;63707;52.212;9.540;2023-01-13T02:03:36;2.33;;;0.50;;
75135;SDS011;63707;52.212;9.540;2023-01-13T02:07:03;1.08;;;0.43;;
75135;SDS011;63707;52.212;9.540;2023-01-13T02:10:28;2.88;;;0.80;;
75135;SDS011;63707;52.212;9.540;2023-01-13T02:14:17;1.40;;;0.70;;
75135;SDS011;63707;52.212;9.540;2023-01-13T02:17:59;7.03;;;1.15;;
75135;SDS011;63707;52.212;9.540;2023-01-13T02:21:41;5.15;;;0.90;;
75135;SDS011;63707;52.212;9.540;2023-01-13T02:25:33;6.35;;;1.80;;
75135;SDS011;63707;52.212;9.540;2023-01-13T02:29:32;6.22;;;1.80;;
75135;SDS011;63707;52.212;9.540;2023-01-13T02:36:17;4.95;;;1.15;;
75135;SDS011;63707;52.212;9.540;2023-01-13T02:39:47;7.22;;;1.17;;
75135;SDS011;63707;52.212;9.540;2023-01-13T02:43:20;7.25;;;2.03;;
75135;SDS011;63707;52.212;9.540;2023-01-13T02:46:52;7.93;;;1.13;;
75135;SDS011;63707;52.212;9.540;2023-01-13T02:50:21;6.55;;;1.15;;
75135;SDS011;63707;52.212;9.540;2023-01-13T02:53:51;7.45;;;1.42;;
75135;SDS011;63707;52.212;9.540;2023-01-13T02:57:19;7.05;;;1.63;;
75135;SDS011;63707;52.212;9.540;2023-01-13T03:00:46;12.32;;;1.50;;
75135;SDS011;63707;52.212;9.540;2023-01-13T03:04:40;6.60;;;1.40;;
75135;SDS011;63707;52.212;9.540;2023-01-13T03:11:08;6.45;;;1.55;;
75135;SDS011;63707;52.212;9.540;2023-01-13T03:13:54;7.38;;;1.50;;
75135;SDS011;63707;52.212;9.540;2023-01-13T03:16:32;10.15;;;1.42;;
75135;SDS011;63707;52.212;9.540;2023-01-13T03:19:16;7.97;;;1.77;;
75135;SDS011;63707;52.212;9.540;2023-01-13T03:21:52;5.53;;;1.60;;
75135;SDS011;63707;52.212;9.540;2023-01-13T03:24:24;8.77;;;1.50;;
75135;SDS011;63707;52.212;9.540;2023-01-13T03:26:56;9.13;;;1.90;;
75135;SDS011;63707;52.212;9.540;2023-01-13T03:29:25;9.43;;;1.77;;
75135;SDS011;63707;52.212;9.540;2023-01-13T03:31:56;6.25;;;1.50;;
75135;SDS011;63707;52.212;9.540;2023-01-13T03:34:29;8.05;;;1.63;;
75135;SDS011;63707;52.212;9.540;2023-01-13T03:36:58;5.50;;;1.65;;
75135;SDS011;63707;52.212;9.540;2023-01-13T03:39:29;6.15;;;1.55;;
75135;SDS011;63707;52.212;9.540;2023-01-13T03:41:58;9.00;;;1.92;;
75135;SDS011;63707;52.212;9.540;2023-01-13T03:44:28;7.10;;;1.70;;
75135;SDS011;63707;52.212;9.540;2023-01-13T03:47:02;6.95;;;1.98;;
75135;SDS011;63707;52.212;9.540;2023-01-13T03:49:35;5.40;;;2.22;;
75135;SDS011;63707;52.212;9.540;2023-01-13T03:52:04;6.53;;;2.40;;
75135;SDS011;63707;52.212;9.540;2023-01-13T03:54:50;6.30;;;1.90;;
75135;SDS011;63707;52.212;9.540;2023-01-13T03:57:22;8.98;;;1.60;;
75135;SDS011;63707;52.212;9.540;2023-01-13T03:59:51;7.60;;;1.90;;
75135;SDS011;63707;52.212;9.540;2023-01-13T04:02:24;9.18;;;2.25;;
75135;SDS011;63707;52.212;9.540;2023-01-13T04:05:00;11.57;;;2.33;;
75135;SDS011;63707;52.212;9.540;2023-01-13T04:07:31;8.55;;;1.95;;
75135;SDS011;63707;52.212;9.540;2023-01-13T04:10:05;5.72;;;1.83;;
75135;SDS011;63707;52.212;9.540;2023-01-13T04:12:34;9.70;;;1.88;;
75135;SDS011;63707;52.212;9.540;2023-01-13T04:15:23;12.57;;;3.03;;
75135;SDS011;63707;52.212;9.540;2023-01-13T04:17:52;11.50;;;2.92;;
75135;SDS011;63707;52.212;9.540;2023-01-13T04:20:19;12.30;;;2.47;;
75135;SDS011;63707;52.212;9.540;2023-01-13T04:22:45;6.80;;;1.80;;
75135;SDS011;63707;52.212;9.540;2023-01-13T04:25:11;9.73;;;2.20;;
75135;SDS011;63707;52.212;9.540;2023-01-13T04:27:36;7.70;;;1.83;;
75135;SDS011;63707;52.212;9.540;2023-01-13T04:30:02;13.60;;;2.45;;
75135;SDS011;63707;52.212;9.540;2023-01-13T04:32:29;15.55;;;3.13;;
75135;SDS011;63707;52.212;9.540;2023-01-13T04:34:54;18.48;;;2.75;;
75135;SDS011;63707;52.212;9.540;2023-01-13T04:37:21;13.80;;;2.72;;
75135;SDS011;63707;52.212;9.540;2023-01-13T04:39:47;11.57;;;2.55;;
75135;SDS011;63707;52.212;9.540;2023-01-13T04:42:12;13.38;;;3.03;;
75135;SDS011;63707;52.212;9.540;2023-01-13T04:44:38;9.38;;;2.30;;
75135;SDS011;63707;52.212;9.540;2023-01-13T04:47:03;14.63;;;2.58;;
75135;SDS011;63707;52.212;9.540;2023-01-13T04:49:29;12.95;;;2.83;;
75135;SDS011;63707;52.212;9.540;2023-01-13T04:51:54;20.65;;;2.97;;
75135;SDS011;63707;52.212;9.540;2023-01-13T04:54:21;14.25;;;2.75;;
75135;SDS011;63707;52.212;9.540;2023-01-13T04:56:47;12.10;;;2.55;;
75135;SDS011;63707;52.212;9.540;2023-01-13T04:59:12;11.13;;;2.47;;
75135;SDS011;63707;52.212;9.540;2023-01-13T05:01:39;7.38;;;2.90;;
75135;SDS011;63707;52.212;9.540;2023-01-13T05:04:04;17.92;;;3.45;;
75135;SDS011;63707;52.212;9.540;2023-01-13T05:06:31;16.95;;;3.10;;
75135;SDS011;63707;52.212;9.540;2023-01-13T05:08:56;17.17;;;2.83;;
75135;SDS011;63707;52.212;9.540;2023-01-13T05:11:23;16.75;;;3.15;;
75135;SDS011;63707;52.212;9.540;2023-01-13T05:14:07;13.52;;;2.83;;
75135;SDS011;63707;52.212;9.540;2023-01-13T05:19:24;18.50;;;2.75;;
75135;SDS011;63707;52.212;9.540;2023-01-13T05:21:50;13.63;;;2.78;;
75135;SDS011;63707;52.212;9.540;2023-01-13T05:24:34;15.93;;;2.65;;
75135;SDS011;63707;52.212;9.540;2023-01-13T05:27:19;11.50;;;2.42;;
75135;SDS011;63707;52.212;9.540;2023-01-13T05:29:45;16.50;;;2.83;;
75135;SDS011;63707;52.212;9.540;2023-01-13T05:32:10;16.70;;;2.90;;
75135;SDS011;63707;52.212;9.540;2023-01-13T05:34:36;16.05;;;2.75;;
75135;SDS011;63707;52.212;9.540;2023-01-13T05:37:01;14.43;;;3.10;;
75135;SDS011;63707;52.212;9.540;2023-01-13T05:39:27;20.02;;;3.83;;
75135;SDS011;63707;52.212;9.540;2023-01-13T05:42:12;10.70;;;2.90;;
75135;SDS011;63707;52.212;9.540;2023-01-13T05:44:58;18.15;;;2.75;;
75135;SDS011;63707;52.212;9.540;2023-01-13T05:47:23;19.25;;;3.10;;
75135;SDS011;63707;52.212;9.540;2023-01-13T05:49:49;17.92;;;3.13;;
75135;SDS011;63707;52.212;9.540;2023-01-13T05:52:14;23.17;;;3.85;;
75135;SDS011;63707;52.212;9.540;2023-01-13T05:54:40;18.02;;;2.92;;
75135;SDS011;63707;52.212;9.540;2023-01-13T05:57:05;18.50;;;3.13;;
75135;SDS011;63707;52.212;9.540;2023-01-13T05:59:31;12.07;;;2.90;;
75135;SDS011;63707;52.212;9.540;2023-01-13T06:01:57;20.80;;;2.80;;
75135;SDS011;63707;52.212;9.540;2023-01-13T06:04:23;14.85;;;2.65;;
75135;SDS011;63707;52.212;9.540;2023-01-13T06:06:48;21.42;;;4.90;;
75135;SDS011;63707;52.212;9.540;2023-01-13T06:09:14;14.35;;;2.10;;
75135;SDS011;63707;52.212;9.540;2023-01-13T06:11:40;14.98;;;2.75;;
75135;SDS011;63707;52.212;9.540;2023-01-13T06:14:05;9.48;;;2.08;;
75135;SDS011;63707;52.212;9.540;2023-01-13T06:16:31;8.57;;;1.50;;
75135;SDS011;63707;52.212;9.540;2023-01-13T06:18:57;18.65;;;2.00;;
75135;SDS011;63707;52.212;9.540;2023-01-13T06:21:23;16.10;;;1.90;;
75135;SDS011;63707;52.212;9.540;2023-01-13T06:23:48;12.20;;;1.90;;
75135;SDS011;63707;52.212;9.540;2023-01-13T06:26:14;9.55;;;1.98;;
75135;SDS011;63707;52.212;9.540;2023-01-13T06:28:43;11.13;;;1.58;;
75135;SDS011;63707;52.212;9.540;2023-01-13T06:31:09;6.75;;;1.48;;
75135;SDS011;63707;52.212;9.540;2023-01-13T06:33:35;12.23;;;1.95;;
75135;SDS011;63707;52.212;9.540;2023-01-13T06:36:05;10.88;;;1.85;;
75135;SDS011;63707;52.212;9.540;2023-01-13T06:38:36;15.70;;;2.85;;
75135;SDS011;63707;52.212;9.540;2023-01-13T06:41:05;13.35;;;1.73;;
75135;SDS011;63707;52.212;9.540;2023-01-13T06:43:31;13.45;;;1.90;;
75135;SDS011;63707;52.212;9.540;2023-01-13T06:45:57;12.07;;;1.35;;
75135;SDS011;63707;52.212;9.540;2023-01-13T06:48:23;10.82;;;1.90;;
75135;SDS011;63707;52.212;9.540;2023-01-13T06:50:51;13.88;;;1.92;;
75135;SDS011;63707;52.212;9.540;2023-01-13T06:53:18;14.80;;;1.90;;
75135;SDS011;63707;52.212;9.540;2023-01-13T06:55:44;15.48;;;1.75;;
75135;SDS011;63707;52.212;9.540;2023-01-13T06:58:11;12.82;;;1.40;;
75135;SDS011;63707;52.212;9.540;2023-01-13T07:00:37;7.63;;;1.60;;
75135;SDS011;63707;52.212;9.540;2023-01-13T07:03:06;10.77;;;2.92;;
75135;SDS011;63707;52.212;9.540;2023-01-13T07:05:33;8.65;;;1.80;;
75135;SDS011;63707;52.212;9.540;2023-01-13T07:07:58;10.55;;;1.27;;
75135;SDS011;63707;52.212;9.540;2023-01-13T07:10:25;10.32;;;1.77;;
75135;SDS011;63707;52.212;9.540;2023-01-13T07:12:51;10.18;;;1.38;;
75135;SDS011;63707;52.212;9.540;2023-01-13T07:15:35;12.68;;;2.60;;
75135;SDS011;63707;52.212;9.540;2023-01-13T07:18:00;6.88;;;1.63;;
75135;SDS011;63707;52.212;9.540;2023-01-13T07:20:27;8.23;;;1.40;;
75135;SDS011;63707;52.212;9.540;2023-01-13T07:22:53;9.80;;;1.70;;
75135;SDS011;63707;52.212;9.540;2023-01-13T07:25:19;13.90;;;2.20;;
75135;SDS011;63707;52.212;9.540;2023-01-13T07:27:45;11.90;;;2.08;;
75135;SDS011;63707;52.212;9.540;2023-01-13T07:30:11;12.45;;;2.53;;
75135;SDS011;63707;52.212;9.540;2023-01-13T07:32:37;13.38;;;1.90;;
75135;SDS011;63707;52.212;9.540;2023-01-13T07:35:03;19.42;;;1.52;;
75135;SDS011;63707;52.212;9.540;2023-01-13T07:37:30;9.93;;;1.67;;
75135;SDS011;63707;52.212;9.540;2023-01-13T07:39:56;9.77;;;1.52;;
75135;SDS011;63707;52.212;9.540;2023-01-13T07:42:22;16.38;;;2.33;;
75135;SDS011;63707;52.212;9.540;2023-01-13T07:45:08;9.87;;;1.37;;
75135;SDS011;63707;52.212;9.540;2023-01-13T07:47:34;13.45;;;2.30;;
75135;SDS011;63707;52.212;9.540;2023-01-13T07:49:59;11.25;;;1.42;;
75135;SDS011;63707;52.212;9.540;2023-01-13T07:52:25;10.75;;;1.50;;
75135;SDS011;63707;52.212;9.540;2023-01-13T07:54:50;13.25;;;2.20;;
75135;SDS011;63707;52.212;9.540;2023-01-13T07:57:16;10.43;;;1.80;;
75135;SDS011;63707;52.212;9.540;2023-01-13T07:59:41;11.90;;;2.03;;
75135;SDS011;63707;52.212;9.540;2023-01-13T08:02:10;20.38;;;2.75;;
75135;SDS011;63707;52.212;9.540;2023-01-13T08:04:37;10.88;;;1.67;;
75135;SDS011;63707;52.212;9.540;2023-01-13T08:07:02;15.10;;;2.75;;
75135;SDS011;63707;52.212;9.540;2023-01-13T08:09:28;17.13;;;2.65;;
75135;SDS011;63707;52.212;9.540;2023-01-13T08:11:54;12.52;;;1.95;;
75135;SDS011;63707;52.212;9.540;2023-01-13T08:14:38;12.05;;;2.58;;
75135;SDS011;63707;52.212;9.540;2023-01-13T08:17:03;16.58;;;2.80;;
75135;SDS011;63707;52.212;9.540;2023-01-13T08:19:30;14.48;;;1.90;;
75135;SDS011;63707;52.212;9.540;2023-01-13T08:21:55;10.30;;;1.90;;
75135;SDS011;63707;52.212;9.540;2023-01-13T08:24:21;15.65;;;2.47;;
75135;SDS011;63707;52.212;9.540;2023-01-13T08:26:46;12.55;;;2.72;;
75135;SDS011;63707;52.212;9.540;2023-01-13T08:29:12;14.80;;;2.10;;
75135;SDS011;63707;52.212;9.540;2023-01-13T08:31:37;11.60;;;1.92;;
75135;SDS011;63707;52.212;9.540;2023-01-13T08:34:03;12.00;;;2.22;;
75135;SDS011;63707;52.212;9.540;2023-01-13T08:36:29;14.75;;;2.13;;
75135;SDS011;63707;52.212;9.540;2023-01-13T08:38:55;11.38;;;2.08;;
75135;SDS011;63707;52.212;9.540;2023-01-13T08:41:20;11.63;;;2.08;;
75135;SDS011;63707;52.212;9.540;2023-01-13T08:44:07;15.38;;;2.03;;
75135;SDS011;63707;52.212;9.540;2023-01-13T08:46:33;16.92;;;2.08;;
75135;SDS011;63707;52.212;9.540;2023-01-13T08:48:59;8.05;;;1.85;;
75135;SDS011;63707;52.212;9.540;2023-01-13T08:51:24;13.63;;;2.40;;
75135;SDS011;63707;52.212;9.540;2023-01-13T08:53:51;10.93;;;2.40;;
75135;SDS011;63707;52.212;9.540;2023-01-13T08:56:17;13.85;;;2.97;;
75135;SDS011;63707;52.212;9.540;2023-01-13T08:58:42;11.25;;;1.90;;
75135;SDS011;63707;52.212;9.540;2023-01-13T09:01:09;11.13;;;2.55;;
75135;SDS011;63707;52.212;9.540;2023-01-13T09:03:36;13.05;;;2.63;;
75135;SDS011;63707;52.212;9.540;2023-01-13T09:06:03;15.90;;;2.15;;
75135;SDS011;63707;52.212;9.540;2023-01-13T09:08:29;14.27;;;2.20;;
75135;SDS011;63707;52.212;9.540;2023-01-13T09:10:56;13.35;;;2.25;;
75135;SDS011;63707;52.212;9.540;2023-01-13T09:13:22;12.52;;;2.50;;
75135;SDS011;63707;52.212;9.540;2023-01-13T09:15:47;6.80;;;2.30;;
75135;SDS011;63707;52.212;9.540;2023-01-13T09:18:13;8.73;;;2.65;;
75135;SDS011;63707;52.212;9.540;2023-01-13T09:20:38;12.90;;;2.35;;
75135;SDS011;63707;52.212;9.540;2023-01-13T09:23:04;13.00;;;3.75;;
75135;SDS011;63707;52.212;9.540;2023-01-13T09:25:29;10.35;;;1.70;;
75135;SDS011;63707;52.212;9.540;2023-01-13T09:27:56;12.95;;;2.10;;
75135;SDS011;63707;52.212;9.540;2023-01-13T09:30:22;12.77;;;1.98;;
75135;SDS011;63707;52.212;9.540;2023-01-13T09:32:48;9.50;;;1.88;;
75135;SDS011;63707;52.212;9.540;2023-01-13T09:35:13;14.38;;;2.25;;
75135;SDS011;63707;52.212;9.540;2023-01-13T09:37:41;9.30;;;1.80;;
75135;SDS011;63707;52.212;9.540;2023-01-13T09:40:10;11.05;;;2.63;;
75135;SDS011;63707;52.212;9.540;2023-01-13T09:42:41;11.95;;;2.30;;
75135;SDS011;63707;52.212;9.540;2023-01-13T09:45:32;13.07;;;2.38;;
75135;SDS011;63707;52.212;9.540;2023-01-13T09:48:03;15.63;;;2.83;;
75135;SDS011;63707;52.212;9.540;2023-01-13T09:50:47;10.98;;;2.15;;
75135;SDS011;63707;52.212;9.540;2023-01-13T09:53:20;13.60;;;1.98;;
75135;SDS011;63707;52.212;9.540;2023-01-13T09:55:49;14.73;;;3.03;;
75135;SDS011;63707;52.212;9.540;2023-01-13T09:58:16;21.10;;;2.30;;
75135;SDS011;63707;52.212;9.540;2023-01-13T10:00:45;13.13;;;2.65;;
75135;SDS011;63707;52.212;9.540;2023-01-13T10:03:20;13.45;;;2.40;;
75135;SDS011;63707;52.212;9.540;2023-01-13T10:05:51;15.70;;;2.33;;
75135;SDS011;63707;52.212;9.540;2023-01-13T10:08:23;9.77;;;2.13;;
75135;SDS011;63707;52.212;9.540;2023-01-13T10:10:54;8.77;;;2.03;;
75135;SDS011;63707;52.212;9.540;2023-01-13T10:13:22;12.82;;;2.53;;
75135;SDS011;63707;52.212;9.540;2023-01-13T10:18:49;12.32;;;2.20;;
75135;SDS011;63707;52.212;9.540;2023-01-13T10:21:30;13.65;;;2.13;;
75135;SDS011;63707;52.212;9.540;2023-01-13T10:24:12;16.33;;;1.88;;
75135;SDS011;63707;52.212;9.540;2023-01-13T10:26:48;13.82;;;2.97;;
75135;SDS011;63707;52.212;9.540;2023-01-13T10:29:22;15.05;;;2.08;;
75135;SDS011;63707;52.212;9.540;2023-01-13T10:31:53;12.13;;;2.13;;
75135;SDS011;63707;52.212;9.540;2023-01-13T10:34:20;14.73;;;2.67;;
75135;SDS011;63707;52.212;9.540;2023-01-13T10:36:54;14.65;;;2.35;;
75135;SDS011;63707;52.212;9.540;2023-01-13T10:39:33;10.30;;;2.00;;
75135;SDS011;63707;52.212;9.540;2023-01-13T10:42:04;10.77;;;2.15;;
75135;SDS011;63707;52.212;9.540;2023-01-13T10:44:31;21.65;;;2.45;;
75135;SDS011;63707;52.212;9.540;2023-01-13T10:47:17;8.32;;;1.88;;
75135;SDS011;63707;52.212;9.540;2023-01-13T10:49:57;12.73;;;1.90;;
75135;SDS011;63707;52.212;9.540;2023-01-13T10:52:25;13.20;;;2.08;;
75135;SDS011;63707;52.212;9.540;2023-01-13T10:54:52;14.23;;;2.30;;
75135;SDS011;63707;52.212;9.540;2023-01-13T10:57:19;13.38;;;2.22;;
75135;SDS011;63707;52.212;9.540;2023-01-13T10:59:46;10.52;;;2.13;;
75135;SDS011;63707;52.212;9.540;2023-01-13T11:02:18;18.00;;;2.10;;
75135;SDS011;63707;52.212;9.540;2023-01-13T11:05:00;11.93;;;1.95;;
75135;SDS011;63707;52.212;9.540;2023-01-13T11:07:33;13.95;;;2.30;;
75135;SDS011;63707;52.212;9.540;2023-01-13T11:10:09;15.45;;;2.30;;
75135;SDS011;63707;52.212;9.540;2023-01-13T11:12:43;14.63;;;2.83;;
75135;SDS011;63707;52.212;9.540;2023-01-13T11:15:14;15.60;;;3.28;;
75135;SDS011;63707;52.212;9.540;2023-01-13T11:17:46;13.60;;;2.47;;
75135;SDS011;63707;52.212;9.540;2023-01-13T11:20:18;14.27;;;1.95;;
75135;SDS011;63707;52.212;9.540;2023-01-13T11:22:47;12.07;;;2.40;;
75135;SDS011;63707;52.212;9.540;2023-01-13T11:25:16;19.27;;;3.03;;
75135;SDS011;63707;52.212;9.540;2023-01-13T11:27:48;12.90;;;1.92;;
75135;SDS011;63707;52.212;9.540;2023-01-13T11:30:22;17.92;;;2.47;;
75135;SDS011;63707;52.212;9.540;2023-01-13T11:33:01;10.38;;;2.13;;
75135;SDS011;63707;52.212;9.540;2023-01-13T11:35:36;12.20;;;2.75;;
75135;SDS011;63707;52.212;9.540;2023-01-13T11:38:08;13.55;;;2.45;;
75135;SDS011;63707;52.212;9.540;2023-01-13T11:40:39;17.65;;;2.78;;
75135;SDS011;63707;52.212;9.540;2023-01-13T11:43:09;11.98;;;2.20;;
75135;SDS011;63707;52.212;9.540;2023-01-13T11:45:43;12.73;;;2.20;;
75135;SDS011;63707;52.212;9.540;2023-01-13T11:48:12;14.13;;;2.63;;
75135;SDS011;63707;52.212;9.540;2023-01-13T11:50:40;13.63;;;2.40;;
75135;SDS011;63707;52.212;9.540;2023-01-13T11:53:16;9.05;;;2.40;;
75135;SDS011;63707;52.212;9.540;2023-01-13T11:55:54;9.98;;;2.28;;
75135;SDS011;63707;52.212;9.540;2023-01-13T12:01:34;19.70;;;3.05;;
75135;SDS011;63707;52.212;9.540;2023-01-13T12:04:23;14.15;;;3.00;;
75135;SDS011;63707;52.212;9.540;2023-01-13T12:06:55;13.50;;;2.53;;
75135;SDS011;63707;52.212;9.540;2023-01-13T12:12:11;8.73;;;2.28;;
75135;SDS011;63707;52.212;9.540;2023-01-13T12:14:47;13.68;;;2.30;;
75135;SDS011;63707;52.212;9.540;2023-01-13T12:17:22;15.15;;;2.28;;
75135;SDS011;63707;52.212;9.540;2023-01-13T12:19:55;11.23;;;2.58;;
75135;SDS011;63707;52.212;9.540;2023-01-13T12:22:22;15.10;;;2.83;;
75135;SDS011;63707;52.212;9.540;2023-01-13T12:24:53;17.92;;;2.38;;
75135;SDS011;63707;52.212;9.540;2023-01-13T12:27:24;14.95;;;2.17;;
75135;SDS011;63707;52.212;9.540;2023-01-13T12:29:56;16.83;;;3.20;;
75135;SDS011;63707;52.212;9.540;2023-01-13T12:32:27;14.45;;;2.40;;
75135;SDS011;63707;52.212;9.540;2023-01-13T12:35:02;16.38;;;2.55;;
75135;SDS011;63707;52.212;9.540;2023-01-13T12:37:41;20.20;;;3.30;;
75135;SDS011;63707;52.212;9.540;2023-01-13T12:40:17;11.70;;;2.08;;
75135;SDS011;63707;52.212;9.540;2023-01-13T12:42:51;15.55;;;2.53;;
75135;SDS011;63707;52.212;9.540;2023-01-13T12:45:41;13.68;;;2.65;;
75135;SDS011;63707;52.212;9.540;2023-01-13T12:48:16;17.95;;;2.70;;
75135;SDS011;63707;52.212;9.540;2023-01-13T12:51:20;14.73;;;3.45;;
75135;SDS011;63707;52.212;9.540;2023-01-13T12:53:46;18.77;;;2.75;;
75135;SDS011;63707;52.212;9.540;2023-01-13T13:02:21;17.15;;;3.10;;
75135;SDS011;63707;52.212;9.540;2023-01-13T13:04:51;12.88;;;3.22;;
75135;SDS011;63707;52.212;9.540;2023-01-13T13:07:25;17.90;;;2.88;;
75135;SDS011;63707;52.212;9.540;2023-01-13T13:10:02;17.38;;;3.22;;
75135;SDS011;63707;52.212;9.540;2023-01-13T13:12:49;13.60;;;2.55;;
75135;SDS011;63707;52.212;9.540;2023-01-13T13:15:36;17.52;;;4.07;;
75135;SDS011;63707;52.212;9.540;2023-01-13T13:18:05;12.25;;;2.33;;
75135;SDS011;63707;52.212;9.540;2023-01-13T13:26:28;17.80;;;3.35;;
75135;SDS011;63707;52.212;9.540;2023-01-13T13:29:14;15.02;;;3.10;;
75135;SDS011;63707;52.212;9.540;2023-01-13T13:31:51;18.80;;;2.60;;
75135;SDS011;63707;52.212;9.540;2023-01-13T13:34:46;16.67;;;3.45;;
75135;SDS011;63707;52.212;9.540;2023-01-13T13:37:25;29.93;;;4.20;;
75135;SDS011;63707;52.212;9.540;2023-01-13T13:40:21;13.95;;;3.42;;
75135;SDS011;63707;52.212;9.540;2023-01-13T13:43:06;17.15;;;3.28;;
75135;SDS011;63707;52.212;9.540;2023-01-13T13:45:55;18.00;;;3.95;;
75135;SDS011;63707;52.212;9.540;2023-01-13T13:48:39;19.98;;;3.97;;
75135;SDS011;63707;52.212;9.540;2023-01-13T13:51:20;23.73;;;6.15;;
75135;SDS011;63707;52.212;9.540;2023-01-13T13:53:49;16.38;;;3.70;;
75135;SDS011;63707;52.212;9.540;2023-01-13T13:56:18;29.15;;;8.45;;
75135;SDS011;63707;52.212;9.540;2023-01-13T13:58:46;21.33;;;5.60;;
75135;SDS011;63707;52.212;9.540;2023-01-13T14:01:15;16.02;;;4.05;;
75135;SDS011;63707;52.212;9.540;2023-01-13T14:03:46;22.03;;;4.40;;
75135;SDS011;63707;52.212;9.540;2023-01-13T14:06:27;16.13;;;3.67;;
75135;SDS011;63707;52.212;9.540;2023-01-13T14:08:54;18.92;;;3.45;;
75135;SDS011;63707;52.212;9.540;2023-01-13T14:11:26;19.85;;;3.63;;
75135;SDS011;63707;52.212;9.540;2023-01-13T14:14:02;16.23;;;2.78;;
75135;SDS011;63707;52.212;9.540;2023-01-13T14:16:29;14.15;;;2.95;;
75135;SDS011;63707;52.212;9.540;2023-01-13T14:18:55;12.48;;;3.15;;
75135;SDS011;63707;52.212;9.540;2023-01-13T14:21:21;7.20;;;1.70;;
75135;SDS011;63707;52.212;9.540;2023-01-13T14:23:51;9.15;;;1.98;;
75135;SDS011;63707;52.212;9.540;2023-01-13T14:26:22;19.45;;;2.47;;
75135;SDS011;63707;52.212;9.540;2023-01-13T14:28:50;16.02;;;2.00;;
75135;SDS011;63707;52.212;9.540;2023-01-13T14:31:16;12.18;;;3.05;;
75135;SDS011;63707;52.212;9.540;2023-01-13T14:34:39;14.77;;;3.42;;
75135;SDS011;63707;52.212;9.540;2023-01-13T14:37:24;10.30;;;2.63;;
75135;SDS011;63707;52.212;9.540;2023-01-13T14:40:40;18.35;;;3.45;;
75135;SDS011;63707;52.212;9.540;2023-01-13T14:43:10;11.00;;;2.92;;
75135;SDS011;63707;52.212;9.540;2023-01-13T14:45:39;17.20;;;2.95;;
75135;SDS011;63707;52.212;9.540;2023-01-13T14:49:02;11.98;;;2.25;;
75135;SDS011;63707;52.212;9.540;2023-01-13T14:51:46;10.85;;;2.05;;
75135;SDS011;63707;52.212;9.540;2023-01-13T14:57:11;12.68;;;2.45;;
75135;SDS011;63707;52.212;9.540;2023-01-13T14:59:41;16.40;;;2.65;;
75135;SDS011;63707;52.212;9.540;2023-01-13T15:05:30;10.07;;;2.00;;
75135;SDS011;63707;52.212;9.540;2023-01-13T15:08:01;12.45;;;2.53;;
75135;SDS011;63707;52.212;9.540;2023-01-13T15:10:31;9.75;;;2.42;;
75135;SDS011;63707;52.212;9.540;2023-01-13T15:12:59;15.55;;;2.50;;
75135;SDS011;63707;52.212;9.540;2023-01-13T15:15:28;12.63;;;1.98;;
75135;SDS011;63707;52.212;9.540;2023-01-13T15:18:00;9.13;;;2.60;;
75135;SDS011;63707;52.212;9.540;2023-01-13T15:20:29;12.90;;;2.38;;
75135;SDS011;63707;52.212;9.540;2023-01-13T15:22:55;11.13;;;2.50;;
75135;SDS011;63707;52.212;9.540;2023-01-13T15:25:23;13.27;;;2.28;;
75135;SDS011;63707;52.212;9.540;2023-01-13T15:27:49;11.48;;;2.13;;
75135;SDS011;63707;52.212;9.540;2023-01-13T15:30:18;20.33;;;4.15;;
75135;SDS011;63707;52.212;9.540;2023-01-13T15:32:45;8.52;;;2.10;;
75135;SDS011;63707;52.212;9.540;2023-01-13T15:35:13;11.27;;;2.10;;
75135;SDS011;63707;52.212;9.540;2023-01-13T15:37:39;10.75;;;2.47;;
75135;SDS011;63707;52.212;9.540;2023-01-13T15:40:08;9.35;;;2.15;;
75135;SDS011;63707;52.212;9.540;2023-01-13T15:42:37;13.52;;;3.00;;
75135;SDS011;63707;52.212;9.540;2023-01-13T15:45:22;14.75;;;2.15;;
75135;SDS011;63707;52.212;9.540;2023-01-13T15:48:05;6.05;;;2.03;;
75135;SDS011;63707;52.212;9.540;2023-01-13T15:50:32;8.20;;;1.92;;
75135;SDS011;63707;52.212;9.540;2023-01-13T15:52:58;8.88;;;1.63;;
75135;SDS011;63707;52.212;9.540;2023-01-13T15:55:23;14.13;;;3.70;;
75135;SDS011;63707;52.212;9.540;2023-01-13T15:57:49;12.93;;;2.08;;
75135;SDS011;63707;52.212;9.540;2023-01-13T16:00:16;12.32;;;2.33;;
75135;SDS011;63707;52.212;9.540;2023-01-13T16:02:46;6.60;;;1.60;;
75135;SDS011;63707;52.212;9.540;2023-01-13T16:05:12;13.63;;;2.55;;
75135;SDS011;63707;52.212;9.540;2023-01-13T16:07:40;7.78;;;1.67;;
75135;SDS011;63707;52.212;9.540;2023-01-13T16:10:06;13.93;;;2.50;;
75135;SDS011;63707;52.212;9.540;2023-01-13T16:12:40;9.40;;;2.22;;
75135;SDS011;63707;52.212;9.540;2023-01-13T16:15:06;11.60;;;2.38;;
75135;SDS011;63707;52.212;9.540;2023-01-13T16:17:33;9.30;;;2.55;;
75135;SDS011;63707;52.212;9.540;2023-01-13T16:19:59;12.40;;;2.28;;
75135;SDS011;63707;52.212;9.540;2023-01-13T16:22:25;9.85;;;1.88;;
75135;SDS011;63707;52.212;9.540;2023-01-13T16:24:52;8.02;;;2.30;;
75135;SDS011;63707;52.212;9.540;2023-01-13T16:27:18;9.00;;;2.17;;
75135;SDS011;63707;52.212;9.540;2023-01-13T16:29:45;10.55;;;2.53;;